< Typhoon 199407 1994 Season Typhoon 199409 >
Typhoon 199408 (ZEKE)
General InformationTrack Information on Google MapsDetailed Wind InformationList of All Images || Disaster Info.ResourceGoogle EarthGE AnimationAtom FeedGeoJSON
Detalied Best Track (Time Zone = UTC)
Year Month Day Hour Lat. Long. Pressure (hPa) Wind (kt) Class Image Chart
1994 7 17 06 21.0 136.0 1002 0 2 Image Chart
1994 7 17 12 21.5 136.5 1002 0 2 Image Chart
1994 7 17 18 22.0 137.0 1002 0 2 Image Chart
1994 7 18 00 23.1 138.0 1000 35 3 Image Chart
1994 7 18 06 24.2 139.5 998 35 3 Image Chart
1994 7 18 12 25.0 141.5 994 35 3 Image Chart
1994 7 18 18 25.5 143.6 994 35 3 Image Chart
1994 7 19 00 26.3 145.5 994 35 3 Image Chart
1994 7 19 06 26.9 146.7 994 35 3 Image Chart
1994 7 19 12 27.5 147.6 994 35 3 Image Chart
1994 7 19 18 27.6 148.3 996 35 3 Image Chart
1994 7 20 00 27.5 148.5 996 35 3 Image Chart
1994 7 20 06 27.2 149.2 996 35 3 Image Chart
1994 7 20 12 26.8 150.2 996 35 3 Image Chart
1994 7 20 18 26.7 150.9 996 35 3 Image Chart
1994 7 21 00 27.0 151.7 996 35 3 Image Chart
1994 7 21 06 27.2 152.4 996 35 3 Image Chart
1994 7 21 12 27.5 152.8 996 40 3 Image Chart
1994 7 21 18 27.8 153.4 996 40 3 Image Chart
1994 7 22 00 28.1 154.3 992 45 3 Image Chart
1994 7 22 06 28.8 154.7 990 45 3 Image Chart
1994 7 22 12 29.5 154.8 985 50 4 Image Chart
1994 7 22 18 30.2 154.8 985 50 4 Image Chart
1994 7 23 00 31.2 154.8 985 50 4 Image Chart
1994 7 23 06 32.4 154.7 990 45 3 Image Chart
1994 7 23 12 33.8 154.5 990 45 3 Image Chart
1994 7 23 18 35.3 154.3 990 45 3 Image Chart
1994 7 24 00 36.5 154.2 990 45 3 Image Chart
1994 7 24 06 37.8 154.5 992 40 3 Image Chart
1994 7 24 12 39.1 155.4 994 35 3 Image Chart
1994 7 24 18 40.4 157.7 996 0 2 Image Chart
1994 7 25 00 43.0 161.0 998 0 6 Image Chart
1994 7 25 06 45.0 164.0 994 0 6 Image Chart
1994 7 25 12 48.0 169.0 994 0 6 Image Chart
1994 7 25 18 50.0 169.0 992 0 6 Image Chart
Japan Meteorological Agency Best Track Data | Correction Date : 1995-01-30
< Typhoon 199407 1994 Season Typhoon 199409 >

Help